DLH1CM EDDF-EDDH
Flight info
| Callsign | DLH1CM |
|---|---|
| Flight time | 0h 52m |
| Altitude | 33000 |
| Route | MARUN3W/25C MARUN Y150 TOLGI DCT SAS/N0446F320 P605 NOLGO NOLGO6A |
| Aircraft | A320/M-SDE3FGHIRWY/LB1 |
Departure
| Time | 2026-05-06 18:16 |
|---|---|
| Airport | Frankfurt Main Airport (EDDF) |
Arrival
| Time | 2026-05-06 19:09 |
|---|---|
| Airport | Hamburg Helmut Schmidt Airport (EDDH) |
| Time | Latitude | Longitude | Altitude | Speed | Heading |
|---|---|---|---|---|---|
| 2026-05-06 17:41 | 50.04752 | 8.56883 | 356 ft | 0 kts | 294° |
| 2026-05-06 18:00 | 50.04752 | 8.56885 | 356 ft | 2 kts | 294° |
| 2026-05-06 18:00 | 50.04743 | 8.56916 | 362 ft | 3 kts | 293° |
| 2026-05-06 18:00 | 50.04735 | 8.56944 | 363 ft | 3 kts | 293° |
| 2026-05-06 18:00 | 50.04730 | 8.56974 | 363 ft | 3 kts | 249° |
| 2026-05-06 18:01 | 50.04743 | 8.56998 | 361 ft | 3 kts | 207° |
| 2026-05-06 18:01 | 50.04763 | 8.57012 | 361 ft | 3 kts | 204° |
| 2026-05-06 18:01 | 50.04784 | 8.57027 | 362 ft | 3 kts | 205° |
| 2026-05-06 18:01 | 50.04795 | 8.57035 | 363 ft | 0 kts | 205° |
| 2026-05-06 18:06 | 50.04792 | 8.57033 | 364 ft | 3 kts | 205° |
| 2026-05-06 18:06 | 50.04775 | 8.57021 | 364 ft | 2 kts | 205° |
| 2026-05-06 18:06 | 50.04765 | 8.57013 | 361 ft | 2 kts | 205° |
| 2026-05-06 18:07 | 50.04735 | 8.56992 | 361 ft | 7 kts | 205° |
| 2026-05-06 18:07 | 50.04697 | 8.56965 | 362 ft | 5 kts | 204° |
| 2026-05-06 18:07 | 50.04660 | 8.56939 | 360 ft | 8 kts | 204° |
| 2026-05-06 18:07 | 50.04581 | 8.56901 | 357 ft | 13 kts | 193° |
| 2026-05-06 18:08 | 50.04506 | 8.56874 | 359 ft | 11 kts | 193° |
| 2026-05-06 18:08 | 50.04403 | 8.56844 | 362 ft | 16 kts | 190° |
| 2026-05-06 18:08 | 50.04303 | 8.56832 | 362 ft | 13 kts | 158° |
| 2026-05-06 18:08 | 50.04291 | 8.56966 | 362 ft | 16 kts | 71° |
| 2026-05-06 18:09 | 50.04327 | 8.57117 | 361 ft | 14 kts | 70° |
| 2026-05-06 18:09 | 50.04365 | 8.57275 | 363 ft | 16 kts | 69° |
| 2026-05-06 18:09 | 50.04401 | 8.57425 | 363 ft | 15 kts | 69° |
| 2026-05-06 18:09 | 50.04441 | 8.57592 | 365 ft | 18 kts | 69° |
| 2026-05-06 18:10 | 50.04487 | 8.57786 | 367 ft | 19 kts | 69° |
| 2026-05-06 18:10 | 50.04532 | 8.57974 | 367 ft | 19 kts | 69° |
| 2026-05-06 18:10 | 50.04579 | 8.58171 | 365 ft | 19 kts | 69° |
| 2026-05-06 18:10 | 50.04617 | 8.58328 | 371 ft | 13 kts | 69° |
| 2026-05-06 18:11 | 50.04642 | 8.58433 | 368 ft | 3 kts | 69° |
| 2026-05-06 18:11 | 50.04644 | 8.58442 | 374 ft | 0 kts | 69° |
| 2026-05-06 18:12 | 50.04652 | 8.58488 | 370 ft | 11 kts | 81° |
| 2026-05-06 18:12 | 50.04613 | 8.58578 | 371 ft | 10 kts | 157° |
| 2026-05-06 18:12 | 50.04557 | 8.58611 | 372 ft | 9 kts | 160° |
| 2026-05-06 18:12 | 50.04501 | 8.58620 | 371 ft | 7 kts | 209° |
| 2026-05-06 18:13 | 50.04480 | 8.58556 | 370 ft | 5 kts | 249° |
| 2026-05-06 18:13 | 50.04479 | 8.58552 | 370 ft | 0 kts | 250° |
| 2026-05-06 18:15 | 50.04478 | 8.58548 | 370 ft | 4 kts | 250° |
| 2026-05-06 18:15 | 50.04399 | 8.58211 | 368 ft | 70 kts | 250° |
| 2026-05-06 18:15 | 50.04152 | 8.57176 | 369 ft | 131 kts | 250° |
| 2026-05-06 18:16 | 50.03783 | 8.55624 | 502 ft | 163 kts | 253° |
| 2026-05-06 18:16 | 50.03389 | 8.53978 | 1189 ft | 162 kts | 253° |
| 2026-05-06 18:16 | 50.02989 | 8.52312 | 1802 ft | 170 kts | 252° |
| 2026-05-06 18:16 | 50.02513 | 8.50500 | 2129 ft | 194 kts | 242° |
| 2026-05-06 18:17 | 50.01574 | 8.48904 | 2665 ft | 207 kts | 217° |
| 2026-05-06 18:17 | 50.00247 | 8.48032 | 3389 ft | 210 kts | 193° |
| 2026-05-06 18:17 | 49.98828 | 8.47706 | 4121 ft | 208 kts | 191° |
| 2026-05-06 18:17 | 49.97396 | 8.47393 | 4831 ft | 207 kts | 191° |
| 2026-05-06 18:18 | 49.95971 | 8.47032 | 5490 ft | 207 kts | 198° |
| 2026-05-06 18:18 | 49.94545 | 8.46381 | 5910 ft | 222 kts | 199° |
| 2026-05-06 18:18 | 49.92998 | 8.45650 | 6315 ft | 239 kts | 202° |
| 2026-05-06 18:18 | 49.91599 | 8.44290 | 7048 ft | 240 kts | 228° |
| 2026-05-06 18:19 | 49.90758 | 8.42058 | 7821 ft | 244 kts | 255° |
| 2026-05-06 18:19 | 49.90690 | 8.39429 | 8600 ft | 250 kts | 281° |
| 2026-05-06 18:19 | 49.91459 | 8.36989 | 9389 ft | 259 kts | 309° |
| 2026-05-06 18:19 | 49.92943 | 8.35361 | 10114 ft | 269 kts | 333° |
| 2026-05-06 18:20 | 49.94725 | 8.34172 | 10463 ft | 290 kts | 335° |
| 2026-05-06 18:20 | 49.96640 | 8.32938 | 10701 ft | 314 kts | 335° |
| 2026-05-06 18:20 | 49.98733 | 8.31597 | 10910 ft | 337 kts | 335° |
| 2026-05-06 18:20 | 50.00956 | 8.30181 | 11314 ft | 351 kts | 337° |
| 2026-05-06 18:21 | 50.03344 | 8.29198 | 11966 ft | 359 kts | 349° |
| 2026-05-06 18:21 | 50.05854 | 8.28993 | 12590 ft | 366 kts | 1° |
| 2026-05-06 18:21 | 50.08381 | 8.29616 | 12787 ft | 369 kts | 15° |
| 2026-05-06 18:21 | 50.10821 | 8.30866 | 12831 ft | 369 kts | 18° |
| 2026-05-06 18:22 | 50.13258 | 8.32161 | 13145 ft | 373 kts | 19° |
| 2026-05-06 18:22 | 50.15618 | 8.33898 | 13850 ft | 377 kts | 28° |
| 2026-05-06 18:22 | 50.17939 | 8.35881 | 14501 ft | 380 kts | 28° |
| 2026-05-06 18:22 | 50.20256 | 8.37870 | 15140 ft | 383 kts | 28° |
| 2026-05-06 18:23 | 50.22574 | 8.39864 | 15747 ft | 386 kts | 28° |
| 2026-05-06 18:23 | 50.24970 | 8.41929 | 16391 ft | 389 kts | 28° |
| 2026-05-06 18:23 | 50.27318 | 8.43956 | 16983 ft | 393 kts | 28° |
| 2026-05-06 18:23 | 50.29718 | 8.46033 | 17598 ft | 396 kts | 28° |
| 2026-05-06 18:24 | 50.32139 | 8.48135 | 18190 ft | 399 kts | 28° |
| 2026-05-06 18:24 | 50.34575 | 8.50255 | 18715 ft | 403 kts | 28° |
| 2026-05-06 18:24 | 50.37040 | 8.52397 | 19200 ft | 407 kts | 27° |
| 2026-05-06 18:24 | 50.39530 | 8.54557 | 19727 ft | 411 kts | 27° |
| 2026-05-06 18:25 | 50.42038 | 8.56740 | 20259 ft | 414 kts | 28° |
| 2026-05-06 18:25 | 50.44557 | 8.58939 | 20798 ft | 417 kts | 28° |
| 2026-05-06 18:25 | 50.47104 | 8.61165 | 21315 ft | 420 kts | 28° |
| 2026-05-06 18:25 | 50.49664 | 8.63407 | 21817 ft | 423 kts | 28° |
| 2026-05-06 18:26 | 50.52245 | 8.65668 | 22311 ft | 426 kts | 28° |
| 2026-05-06 18:26 | 50.54802 | 8.67909 | 22780 ft | 429 kts | 28° |
| 2026-05-06 18:26 | 50.57424 | 8.70207 | 23184 ft | 434 kts | 28° |
| 2026-05-06 18:26 | 50.60070 | 8.72528 | 23549 ft | 438 kts | 28° |
| 2026-05-06 18:27 | 50.62736 | 8.74875 | 23915 ft | 441 kts | 28° |
| 2026-05-06 18:27 | 50.65425 | 8.77246 | 24287 ft | 443 kts | 28° |
| 2026-05-06 18:27 | 50.68121 | 8.79626 | 24647 ft | 446 kts | 28° |
| 2026-05-06 18:27 | 50.70834 | 8.82021 | 24991 ft | 448 kts | 28° |
| 2026-05-06 18:28 | 50.73563 | 8.84433 | 25342 ft | 451 kts | 28° |
| 2026-05-06 18:28 | 50.76312 | 8.86868 | 25685 ft | 453 kts | 28° |
| 2026-05-06 18:28 | 50.79064 | 8.89311 | 26017 ft | 456 kts | 28° |
| 2026-05-06 18:28 | 50.81836 | 8.91774 | 26347 ft | 458 kts | 28° |
| 2026-05-06 18:29 | 50.84619 | 8.94250 | 26674 ft | 460 kts | 29° |
| 2026-05-06 18:29 | 50.87421 | 8.96743 | 26998 ft | 463 kts | 29° |
| 2026-05-06 18:29 | 50.90234 | 8.99244 | 27300 ft | 465 kts | 29° |
| 2026-05-06 18:29 | 50.93025 | 9.01731 | 27600 ft | 467 kts | 29° |
| 2026-05-06 18:30 | 50.95896 | 9.04298 | 27783 ft | 469 kts | 29° |
| 2026-05-06 18:30 | 50.98702 | 9.06812 | 27838 ft | 469 kts | 29° |
| 2026-05-06 18:30 | 51.01542 | 9.09359 | 27808 ft | 470 kts | 29° |
| 2026-05-06 18:30 | 51.04389 | 9.11914 | 27811 ft | 470 kts | 28° |
| 2026-05-06 18:31 | 51.07234 | 9.14475 | 27805 ft | 470 kts | 29° |
| 2026-05-06 18:31 | 51.10082 | 9.17043 | 27837 ft | 470 kts | 29° |
| 2026-05-06 18:31 | 51.12924 | 9.19610 | 27833 ft | 470 kts | 29° |
| 2026-05-06 18:31 | 51.15771 | 9.22186 | 28055 ft | 472 kts | 29° |
| 2026-05-06 18:32 | 51.18632 | 9.24776 | 28357 ft | 474 kts | 29° |
| 2026-05-06 18:32 | 51.21507 | 9.27380 | 28644 ft | 476 kts | 28° |
| 2026-05-06 18:32 | 51.24390 | 9.29996 | 28913 ft | 478 kts | 28° |
| 2026-05-06 18:32 | 51.27301 | 9.32568 | 29167 ft | 479 kts | 25° |
| 2026-05-06 18:33 | 51.30388 | 9.34608 | 29401 ft | 480 kts | 16° |
| 2026-05-06 18:33 | 51.33614 | 9.35953 | 29628 ft | 480 kts | 10° |
| 2026-05-06 18:33 | 51.36880 | 9.37068 | 29932 ft | 480 kts | 10° |
| 2026-05-06 18:33 | 51.40141 | 9.38193 | 30228 ft | 479 kts | 10° |
| 2026-05-06 18:34 | 51.43353 | 9.39315 | 30525 ft | 479 kts | 11° |
| 2026-05-06 18:34 | 51.46599 | 9.40458 | 30900 ft | 475 kts | 11° |
| 2026-05-06 18:34 | 51.49816 | 9.41594 | 31258 ft | 472 kts | 11° |
| 2026-05-06 18:34 | 51.53018 | 9.42724 | 31563 ft | 472 kts | 11° |
| 2026-05-06 18:35 | 51.56224 | 9.43855 | 31848 ft | 471 kts | 11° |
| 2026-05-06 18:35 | 51.59429 | 9.44982 | 32122 ft | 471 kts | 11° |
| 2026-05-06 18:35 | 51.62623 | 9.46107 | 32405 ft | 471 kts | 11° |
| 2026-05-06 18:35 | 51.65826 | 9.47238 | 32685 ft | 471 kts | 11° |
| 2026-05-06 18:36 | 51.69035 | 9.48368 | 32817 ft | 469 kts | 11° |
| 2026-05-06 18:36 | 51.72207 | 9.49488 | 32828 ft | 468 kts | 11° |
| 2026-05-06 18:36 | 51.78555 | 9.51743 | 32824 ft | 467 kts | 11° |
| 2026-05-06 18:37 | 51.83754 | 9.54109 | 32827 ft | 469 kts | 21° |
| 2026-05-06 18:37 | 51.90545 | 9.59576 | 32830 ft | 470 kts | 26° |
| 2026-05-06 18:38 | 51.96364 | 9.64404 | 32829 ft | 470 kts | 26° |
| 2026-05-06 18:38 | 52.02177 | 9.69223 | 32823 ft | 469 kts | 26° |
| 2026-05-06 18:39 | 52.07987 | 9.74062 | 32821 ft | 469 kts | 26° |
| 2026-05-06 18:40 | 52.16641 | 9.81325 | 32836 ft | 469 kts | 26° |
| 2026-05-06 18:40 | 52.19546 | 9.83761 | 32508 ft | 470 kts | 26° |
| 2026-05-06 18:40 | 52.22448 | 9.86197 | 32045 ft | 468 kts | 26° |
| 2026-05-06 18:40 | 52.25402 | 9.88391 | 31473 ft | 465 kts | 19° |
| 2026-05-06 18:41 | 52.28487 | 9.89928 | 30837 ft | 462 kts | 13° |
| 2026-05-06 18:41 | 52.31590 | 9.91276 | 30213 ft | 461 kts | 13° |
| 2026-05-06 18:41 | 52.34680 | 9.92626 | 29505 ft | 460 kts | 13° |
| 2026-05-06 18:41 | 52.37768 | 9.93984 | 28804 ft | 458 kts | 13° |
| 2026-05-06 18:42 | 52.40827 | 9.95335 | 28110 ft | 454 kts | 13° |
| 2026-05-06 18:42 | 52.43826 | 9.96662 | 27424 ft | 450 kts | 14° |
| 2026-05-06 18:42 | 52.46838 | 9.97995 | 26762 ft | 447 kts | 13° |
| 2026-05-06 18:42 | 52.49826 | 9.99321 | 26115 ft | 444 kts | 13° |
| 2026-05-06 18:43 | 52.52798 | 10.00643 | 25483 ft | 441 kts | 13° |
| 2026-05-06 18:43 | 52.55756 | 10.01955 | 24865 ft | 439 kts | 13° |
| 2026-05-06 18:43 | 52.58694 | 10.03261 | 24266 ft | 436 kts | 13° |
| 2026-05-06 18:43 | 52.61616 | 10.04562 | 23672 ft | 434 kts | 13° |
| 2026-05-06 18:44 | 52.64522 | 10.05857 | 23034 ft | 432 kts | 13° |
| 2026-05-06 18:44 | 52.67416 | 10.07150 | 22345 ft | 429 kts | 13° |
| 2026-05-06 18:44 | 52.70321 | 10.08147 | 21636 ft | 426 kts | 3° |
| 2026-05-06 18:44 | 52.73234 | 10.08436 | 20931 ft | 425 kts | 1° |
| 2026-05-06 18:45 | 52.76177 | 10.08684 | 20267 ft | 423 kts | 1° |
| 2026-05-06 18:45 | 52.79119 | 10.08916 | 19599 ft | 422 kts | 1° |
| 2026-05-06 18:45 | 52.82043 | 10.09142 | 18988 ft | 419 kts | 1° |
| 2026-05-06 18:45 | 52.84007 | 10.09297 | 18595 ft | 418 kts | 1° |
| 2026-05-06 18:46 | 52.87842 | 10.09603 | 17761 ft | 415 kts | 1° |
| 2026-05-06 18:46 | 52.90717 | 10.09835 | 17106 ft | 413 kts | 1° |
| 2026-05-06 18:46 | 52.93575 | 10.10071 | 16501 ft | 410 kts | 1° |
| 2026-05-06 18:46 | 52.96412 | 10.10305 | 15970 ft | 405 kts | 1° |
| 2026-05-06 18:47 | 52.99213 | 10.10533 | 15457 ft | 401 kts | 2° |
| 2026-05-06 18:47 | 53.01986 | 10.10754 | 14933 ft | 397 kts | 1° |
| 2026-05-06 18:47 | 53.04728 | 10.10972 | 14408 ft | 393 kts | 1° |
| 2026-05-06 18:47 | 53.07445 | 10.11190 | 13910 ft | 389 kts | 2° |
| 2026-05-06 18:48 | 53.10096 | 10.11403 | 13387 ft | 385 kts | 2° |
| 2026-05-06 18:48 | 53.12755 | 10.11616 | 12830 ft | 380 kts | 2° |
| 2026-05-06 18:48 | 53.15383 | 10.11830 | 12280 ft | 376 kts | 2° |
| 2026-05-06 18:48 | 53.17979 | 10.12045 | 11739 ft | 371 kts | 3° |
| 2026-05-06 18:49 | 53.20541 | 10.12256 | 11206 ft | 366 kts | 3° |
| 2026-05-06 18:49 | 53.23051 | 10.12458 | 10909 ft | 355 kts | 3° |
| 2026-05-06 18:49 | 53.25473 | 10.12656 | 10874 ft | 341 kts | 3° |
| 2026-05-06 18:49 | 53.27780 | 10.12850 | 10885 ft | 323 kts | 3° |
| 2026-05-06 18:50 | 53.29964 | 10.13034 | 10887 ft | 306 kts | 3° |
| 2026-05-06 18:50 | 53.32042 | 10.13205 | 10884 ft | 294 kts | 4° |
| 2026-05-06 18:50 | 53.34062 | 10.13369 | 10890 ft | 290 kts | 4° |
| 2026-05-06 18:50 | 53.36072 | 10.13531 | 10890 ft | 288 kts | 4° |
| 2026-05-06 18:51 | 53.38079 | 10.13696 | 10889 ft | 289 kts | 3° |
| 2026-05-06 18:51 | 53.40056 | 10.13861 | 10890 ft | 290 kts | 3° |
| 2026-05-06 18:51 | 53.42186 | 10.14033 | 10901 ft | 323 kts | 4° |
| 2026-05-06 18:51 | 53.44497 | 10.14217 | 10892 ft | 339 kts | 3° |
| 2026-05-06 18:52 | 53.46873 | 10.14415 | 10893 ft | 343 kts | 3° |
| 2026-05-06 18:52 | 53.49206 | 10.14208 | 10771 ft | 333 kts | 347° |
| 2026-05-06 18:52 | 53.51350 | 10.12621 | 10571 ft | 341 kts | 326° |
| 2026-05-06 18:52 | 53.52997 | 10.09805 | 10194 ft | 337 kts | 303° |
| 2026-05-06 18:53 | 53.53817 | 10.06208 | 10069 ft | 326 kts | 279° |
| 2026-05-06 18:53 | 53.53722 | 10.02506 | 9944 ft | 314 kts | 255° |
| 2026-05-06 18:53 | 53.52824 | 9.99306 | 9670 ft | 297 kts | 237° |
| 2026-05-06 18:53 | 53.51669 | 9.96465 | 9033 ft | 292 kts | 234° |
| 2026-05-06 18:54 | 53.50498 | 9.93707 | 8393 ft | 291 kts | 234° |
| 2026-05-06 18:54 | 53.49320 | 9.90959 | 8005 ft | 289 kts | 233° |
| 2026-05-06 18:54 | 53.48011 | 9.88465 | 7812 ft | 279 kts | 225° |
| 2026-05-06 18:54 | 53.46666 | 9.86215 | 7681 ft | 268 kts | 224° |
| 2026-05-06 18:55 | 53.45366 | 9.84072 | 7439 ft | 257 kts | 224° |
| 2026-05-06 18:55 | 53.44102 | 9.81993 | 7062 ft | 252 kts | 224° |
| 2026-05-06 18:55 | 53.42871 | 9.79975 | 6629 ft | 250 kts | 224° |
| 2026-05-06 18:55 | 53.41619 | 9.77931 | 6245 ft | 251 kts | 224° |
| 2026-05-06 18:56 | 53.40375 | 9.75898 | 5895 ft | 249 kts | 224° |
| 2026-05-06 18:56 | 53.39141 | 9.73866 | 5525 ft | 249 kts | 224° |
| 2026-05-06 18:56 | 53.37915 | 9.71825 | 5166 ft | 248 kts | 224° |
| 2026-05-06 18:56 | 53.36704 | 9.69802 | 5005 ft | 246 kts | 224° |
| 2026-05-06 18:57 | 53.35484 | 9.67763 | 5013 ft | 248 kts | 224° |
| 2026-05-06 18:57 | 53.34264 | 9.65718 | 5001 ft | 248 kts | 224° |
| 2026-05-06 18:57 | 53.33053 | 9.63672 | 5008 ft | 248 kts | 226° |
| 2026-05-06 18:57 | 53.32173 | 9.61232 | 4933 ft | 246 kts | 255° |
| 2026-05-06 18:58 | 53.32124 | 9.58431 | 4572 ft | 241 kts | 288° |
| 2026-05-06 18:58 | 53.32935 | 9.56074 | 4192 ft | 233 kts | 321° |
| 2026-05-06 18:58 | 53.34304 | 9.54919 | 4004 ft | 222 kts | 356° |
| 2026-05-06 18:58 | 53.35733 | 9.55244 | 4006 ft | 199 kts | 27° |
| 2026-05-06 18:59 | 53.36906 | 9.56276 | 4000 ft | 182 kts | 33° |
| 2026-05-06 18:59 | 53.37951 | 9.57321 | 4001 ft | 170 kts | 34° |
| 2026-05-06 18:59 | 53.38956 | 9.58346 | 4004 ft | 168 kts | 34° |
| 2026-05-06 18:59 | 53.39954 | 9.59368 | 4009 ft | 168 kts | 34° |
| 2026-05-06 19:00 | 53.40951 | 9.60390 | 4058 ft | 168 kts | 34° |
| 2026-05-06 19:00 | 53.41946 | 9.61403 | 4027 ft | 167 kts | 34° |
| 2026-05-06 19:00 | 53.42936 | 9.62413 | 4014 ft | 166 kts | 34° |
| 2026-05-06 19:00 | 53.43590 | 9.63085 | 4012 ft | 167 kts | 34° |
| 2026-05-06 19:01 | 53.44911 | 9.64446 | 4024 ft | 166 kts | 34° |
| 2026-05-06 19:01 | 53.45544 | 9.65098 | 4009 ft | 155 kts | 34° |
| 2026-05-06 19:01 | 53.46399 | 9.66020 | 4014 ft | 139 kts | 43° |
| 2026-05-06 19:01 | 53.47103 | 9.67107 | 4027 ft | 137 kts | 47° |
| 2026-05-06 19:02 | 53.47968 | 9.68652 | 4052 ft | 136 kts | 49° |
| 2026-05-06 19:02 | 53.48598 | 9.69851 | 4044 ft | 136 kts | 51° |
| 2026-05-06 19:02 | 53.49018 | 9.70668 | 3995 ft | 137 kts | 51° |
| 2026-05-06 19:02 | 53.49628 | 9.71870 | 3872 ft | 137 kts | 51° |
| 2026-05-06 19:03 | 53.50240 | 9.73086 | 3711 ft | 136 kts | 51° |
| 2026-05-06 19:03 | 53.50849 | 9.74301 | 3538 ft | 135 kts | 51° |
| 2026-05-06 19:03 | 53.51454 | 9.75511 | 3362 ft | 135 kts | 51° |
| 2026-05-06 19:03 | 53.52057 | 9.76718 | 3179 ft | 135 kts | 52° |
| 2026-05-06 19:04 | 53.52660 | 9.77926 | 2992 ft | 135 kts | 51° |
| 2026-05-06 19:04 | 53.53262 | 9.79132 | 2810 ft | 134 kts | 52° |
| 2026-05-06 19:04 | 53.53859 | 9.80332 | 2625 ft | 134 kts | 52° |
| 2026-05-06 19:04 | 53.54454 | 9.81525 | 2442 ft | 133 kts | 52° |
| 2026-05-06 19:05 | 53.55046 | 9.82714 | 2253 ft | 132 kts | 51° |
| 2026-05-06 19:05 | 53.55636 | 9.83901 | 2079 ft | 132 kts | 51° |
| 2026-05-06 19:05 | 53.56225 | 9.85085 | 1898 ft | 131 kts | 52° |
| 2026-05-06 19:05 | 53.56810 | 9.86260 | 1718 ft | 131 kts | 51° |
| 2026-05-06 19:06 | 53.57387 | 9.87421 | 1534 ft | 131 kts | 51° |
| 2026-05-06 19:06 | 53.57970 | 9.88595 | 1353 ft | 131 kts | 51° |
| 2026-05-06 19:06 | 53.58554 | 9.89772 | 1169 ft | 131 kts | 51° |
| 2026-05-06 19:06 | 53.59138 | 9.90942 | 955 ft | 130 kts | 51° |
| 2026-05-06 19:07 | 53.59718 | 9.92107 | 798 ft | 130 kts | 51° |
| 2026-05-06 19:07 | 53.60301 | 9.93286 | 601 ft | 130 kts | 51° |
| 2026-05-06 19:07 | 53.60883 | 9.94469 | 423 ft | 130 kts | 51° |
| 2026-05-06 19:07 | 53.61468 | 9.95647 | 262 ft | 131 kts | 51° |
| 2026-05-06 19:08 | 53.62046 | 9.96794 | 85 ft | 128 kts | 51° |
| 2026-05-06 19:08 | 53.62565 | 9.97861 | 43 ft | 104 kts | 51° |
| 2026-05-06 19:08 | 53.62948 | 9.98645 | 45 ft | 74 kts | 50° |
| 2026-05-06 19:08 | 53.63228 | 9.99226 | 47 ft | 51 kts | 53° |
| 2026-05-06 19:09 | 53.63288 | 9.99538 | 47 ft | 15 kts | 98° |
| 2026-05-06 19:09 | 53.63282 | 9.99603 | 48 ft | 0 kts | 99° |
| 2026-05-06 19:09 | 53.63282 | 9.99608 | 48 ft | 2 kts | 99° |
| 2026-05-06 19:10 | 53.63280 | 9.99631 | 48 ft | 1 kts | 98° |
| 2026-05-06 19:10 | 53.63279 | 9.99641 | 48 ft | 3 kts | 98° |
| 2026-05-06 19:10 | 53.63275 | 9.99697 | 48 ft | 7 kts | 93° |
| 2026-05-06 19:10 | 53.63296 | 9.99799 | 48 ft | 11 kts | 51° |
| 2026-05-06 19:11 | 53.63354 | 9.99913 | 48 ft | 14 kts | 50° |
| 2026-05-06 19:11 | 53.63418 | 10.00045 | 48 ft | 14 kts | 54° |
| 2026-05-06 19:11 | 53.63405 | 10.00182 | 47 ft | 13 kts | 126° |
| 2026-05-06 19:11 | 53.63339 | 10.00237 | 46 ft | 8 kts | 154° |
| 2026-05-06 19:12 | 53.63329 | 10.00303 | 48 ft | 5 kts | 85° |
| 2026-05-06 19:12 | 53.63330 | 10.00340 | 48 ft | 2 kts | 86° |
| 2026-05-06 19:12 | 53.63331 | 10.00358 | 48 ft | 1 kts | 86° |
| 2026-05-06 19:12 | 53.63331 | 10.00362 | 48 ft | 1 kts | 86° |
| 2026-05-06 19:13 | 53.63331 | 10.00364 | 48 ft | 0 kts | 86° |